sensor_id;sensor_type;location;lat;lon;timestamp;P1;durP1;ratioP1;P2;durP2;ratioP2
43620;SDS011;29213;50.770;7.298;2023-04-03T00:01:28;5.20;;;1.70;;
43620;SDS011;29213;50.770;7.298;2023-04-03T00:03:54;5.88;;;2.13;;
43620;SDS011;29213;50.770;7.298;2023-04-03T00:06:20;4.45;;;1.95;;
43620;SDS011;29213;50.770;7.298;2023-04-03T00:08:46;4.03;;;1.80;;
43620;SDS011;29213;50.770;7.298;2023-04-03T00:11:12;3.85;;;1.58;;
43620;SDS011;29213;50.770;7.298;2023-04-03T00:13:38;3.38;;;1.63;;
43620;SDS011;29213;50.770;7.298;2023-04-03T00:16:04;3.85;;;1.85;;
43620;SDS011;29213;50.770;7.298;2023-04-03T00:18:30;3.67;;;1.73;;
43620;SDS011;29213;50.770;7.298;2023-04-03T00:20:56;4.55;;;2.15;;
43620;SDS011;29213;50.770;7.298;2023-04-03T00:23:21;3.72;;;1.73;;
43620;SDS011;29213;50.770;7.298;2023-04-03T00:25:49;4.40;;;2.15;;
43620;SDS011;29213;50.770;7.298;2023-04-03T00:28:15;5.72;;;2.13;;
43620;SDS011;29213;50.770;7.298;2023-04-03T00:30:40;4.32;;;2.20;;
43620;SDS011;29213;50.770;7.298;2023-04-03T00:33:06;4.13;;;2.03;;
43620;SDS011;29213;50.770;7.298;2023-04-03T00:35:32;4.43;;;1.92;;
43620;SDS011;29213;50.770;7.298;2023-04-03T00:38:00;4.35;;;2.03;;
43620;SDS011;29213;50.770;7.298;2023-04-03T00:40:25;3.40;;;1.83;;
43620;SDS011;29213;50.770;7.298;2023-04-03T00:42:55;5.05;;;2.15;;
43620;SDS011;29213;50.770;7.298;2023-04-03T00:45:25;4.65;;;2.22;;
43620;SDS011;29213;50.770;7.298;2023-04-03T00:47:56;3.53;;;1.70;;
43620;SDS011;29213;50.770;7.298;2023-04-03T00:50:24;4.35;;;1.88;;
43620;SDS011;29213;50.770;7.298;2023-04-03T00:52:51;4.00;;;1.80;;
43620;SDS011;29213;50.770;7.298;2023-04-03T00:55:16;4.60;;;1.95;;
43620;SDS011;29213;50.770;7.298;2023-04-03T00:57:42;4.28;;;1.95;;
43620;SDS011;29213;50.770;7.298;2023-04-03T01:00:11;4.47;;;1.60;;
43620;SDS011;29213;50.770;7.298;2023-04-03T01:02:39;4.40;;;1.95;;
43620;SDS011;29213;50.770;7.298;2023-04-03T01:05:08;3.45;;;1.70;;
43620;SDS011;29213;50.770;7.298;2023-04-03T01:07:34;3.35;;;1.75;;
43620;SDS011;29213;50.770;7.298;2023-04-03T01:10:03;4.18;;;1.80;;
43620;SDS011;29213;50.770;7.298;2023-04-03T01:12:33;4.07;;;1.85;;
43620;SDS011;29213;50.770;7.298;2023-04-03T01:15:11;4.25;;;1.80;;
43620;SDS011;29213;50.770;7.298;2023-04-03T01:17:55;5.65;;;1.63;;
43620;SDS011;29213;50.770;7.298;2023-04-03T01:23:12;5.18;;;1.80;;
43620;SDS011;29213;50.770;7.298;2023-04-03T01:25:49;4.55;;;2.03;;
43620;SDS011;29213;50.770;7.298;2023-04-03T01:28:17;4.15;;;1.90;;
43620;SDS011;29213;50.770;7.298;2023-04-03T01:31:06;3.40;;;1.92;;
43620;SDS011;29213;50.770;7.298;2023-04-03T01:33:39;4.43;;;2.00;;
43620;SDS011;29213;50.770;7.298;2023-04-03T01:36:05;4.32;;;1.90;;
43620;SDS011;29213;50.770;7.298;2023-04-03T01:38:32;4.95;;;1.92;;
43620;SDS011;29213;50.770;7.298;2023-04-03T01:40:57;4.93;;;1.90;;
43620;SDS011;29213;50.770;7.298;2023-04-03T01:43:22;5.13;;;1.98;;
43620;SDS011;29213;50.770;7.298;2023-04-03T01:45:48;4.10;;;1.90;;
43620;SDS011;29213;50.770;7.298;2023-04-03T01:48:15;4.65;;;1.98;;
43620;SDS011;29213;50.770;7.298;2023-04-03T01:50:41;4.05;;;2.00;;
43620;SDS011;29213;50.770;7.298;2023-04-03T01:53:07;4.22;;;1.92;;
43620;SDS011;29213;50.770;7.298;2023-04-03T01:55:33;5.35;;;2.10;;
43620;SDS011;29213;50.770;7.298;2023-04-03T01:57:59;5.30;;;2.20;;
43620;SDS011;29213;50.770;7.298;2023-04-03T02:00:24;3.72;;;2.00;;
43620;SDS011;29213;50.770;7.298;2023-04-03T02:02:50;5.68;;;2.00;;
43620;SDS011;29213;50.770;7.298;2023-04-03T02:05:15;5.28;;;2.03;;
43620;SDS011;29213;50.770;7.298;2023-04-03T02:07:41;4.20;;;2.22;;
43620;SDS011;29213;50.770;7.298;2023-04-03T02:10:06;4.90;;;2.03;;
43620;SDS011;29213;50.770;7.298;2023-04-03T02:12:32;3.45;;;1.80;;
43620;SDS011;29213;50.770;7.298;2023-04-03T02:14:57;6.10;;;2.00;;
43620;SDS011;29213;50.770;7.298;2023-04-03T02:17:23;3.60;;;1.95;;
43620;SDS011;29213;50.770;7.298;2023-04-03T02:19:48;4.13;;;2.10;;
43620;SDS011;29213;50.770;7.298;2023-04-03T02:22:14;4.00;;;2.00;;
43620;SDS011;29213;50.770;7.298;2023-04-03T02:24:40;5.10;;;2.13;;
43620;SDS011;29213;50.770;7.298;2023-04-03T02:27:06;4.55;;;2.00;;
43620;SDS011;29213;50.770;7.298;2023-04-03T02:29:31;4.18;;;1.95;;
43620;SDS011;29213;50.770;7.298;2023-04-03T02:31:57;5.28;;;1.90;;
43620;SDS011;29213;50.770;7.298;2023-04-03T02:34:22;4.15;;;2.00;;
43620;SDS011;29213;50.770;7.298;2023-04-03T02:36:48;4.82;;;1.95;;
43620;SDS011;29213;50.770;7.298;2023-04-03T02:39:20;3.58;;;1.88;;
43620;SDS011;29213;50.770;7.298;2023-04-03T02:41:45;4.20;;;1.80;;
43620;SDS011;29213;50.770;7.298;2023-04-03T02:44:11;3.67;;;1.85;;
43620;SDS011;29213;50.770;7.298;2023-04-03T02:46:37;5.05;;;2.00;;
43620;SDS011;29213;50.770;7.298;2023-04-03T02:49:02;3.92;;;2.05;;
43620;SDS011;29213;50.770;7.298;2023-04-03T02:54:06;4.40;;;2.15;;
43620;SDS011;29213;50.770;7.298;2023-04-03T02:56:32;4.18;;;1.90;;
43620;SDS011;29213;50.770;7.298;2023-04-03T02:58:57;3.38;;;1.52;;
43620;SDS011;29213;50.770;7.298;2023-04-03T03:01:23;4.78;;;2.33;;
43620;SDS011;29213;50.770;7.298;2023-04-03T03:03:48;4.20;;;1.88;;
43620;SDS011;29213;50.770;7.298;2023-04-03T03:06:15;4.15;;;2.00;;
43620;SDS011;29213;50.770;7.298;2023-04-03T03:08:42;4.00;;;2.00;;
43620;SDS011;29213;50.770;7.298;2023-04-03T03:11:08;5.55;;;2.00;;
43620;SDS011;29213;50.770;7.298;2023-04-03T03:13:35;4.32;;;1.75;;
43620;SDS011;29213;50.770;7.298;2023-04-03T03:16:00;3.92;;;1.98;;
43620;SDS011;29213;50.770;7.298;2023-04-03T03:18:27;3.63;;;1.83;;
43620;SDS011;29213;50.770;7.298;2023-04-03T03:20:53;4.22;;;2.00;;
43620;SDS011;29213;50.770;7.298;2023-04-03T03:23:21;4.75;;;2.05;;
43620;SDS011;29213;50.770;7.298;2023-04-03T03:25:47;5.20;;;1.90;;
43620;SDS011;29213;50.770;7.298;2023-04-03T03:28:13;4.22;;;1.92;;
43620;SDS011;29213;50.770;7.298;2023-04-03T03:30:38;4.00;;;2.00;;
43620;SDS011;29213;50.770;7.298;2023-04-03T03:33:04;5.22;;;1.98;;
43620;SDS011;29213;50.770;7.298;2023-04-03T03:35:30;5.28;;;2.20;;
43620;SDS011;29213;50.770;7.298;2023-04-03T03:37:55;4.65;;;2.22;;
43620;SDS011;29213;50.770;7.298;2023-04-03T03:40:20;4.43;;;1.98;;
43620;SDS011;29213;50.770;7.298;2023-04-03T03:42:46;5.20;;;2.20;;
43620;SDS011;29213;50.770;7.298;2023-04-03T03:45:11;4.28;;;2.17;;
43620;SDS011;29213;50.770;7.298;2023-04-03T03:47:37;3.53;;;1.90;;
43620;SDS011;29213;50.770;7.298;2023-04-03T03:50:03;3.92;;;2.03;;
43620;SDS011;29213;50.770;7.298;2023-04-03T03:52:28;4.10;;;2.10;;
43620;SDS011;29213;50.770;7.298;2023-04-03T03:54:55;5.50;;;2.33;;
43620;SDS011;29213;50.770;7.298;2023-04-03T03:57:21;4.63;;;2.15;;
43620;SDS011;29213;50.770;7.298;2023-04-03T03:59:46;4.97;;;1.90;;
43620;SDS011;29213;50.770;7.298;2023-04-03T04:02:13;5.63;;;2.00;;
43620;SDS011;29213;50.770;7.298;2023-04-03T04:04:39;4.55;;;2.10;;
43620;SDS011;29213;50.770;7.298;2023-04-03T04:07:05;4.57;;;2.22;;
43620;SDS011;29213;50.770;7.298;2023-04-03T04:09:30;4.38;;;2.17;;
43620;SDS011;29213;50.770;7.298;2023-04-03T04:11:55;4.70;;;2.05;;
43620;SDS011;29213;50.770;7.298;2023-04-03T04:14:21;4.05;;;2.00;;
43620;SDS011;29213;50.770;7.298;2023-04-03T04:16:47;3.95;;;1.90;;
43620;SDS011;29213;50.770;7.298;2023-04-03T04:19:13;3.40;;;1.80;;
43620;SDS011;29213;50.770;7.298;2023-04-03T04:21:39;4.75;;;1.85;;
43620;SDS011;29213;50.770;7.298;2023-04-03T04:24:04;6.32;;;2.30;;
43620;SDS011;29213;50.770;7.298;2023-04-03T04:26:30;5.97;;;2.00;;
43620;SDS011;29213;50.770;7.298;2023-04-03T04:28:56;3.90;;;2.22;;
43620;SDS011;29213;50.770;7.298;2023-04-03T04:31:21;5.53;;;2.40;;
43620;SDS011;29213;50.770;7.298;2023-04-03T04:33:47;5.15;;;3.22;;
43620;SDS011;29213;50.770;7.298;2023-04-03T04:36:12;10.05;;;7.90;;
43620;SDS011;29213;50.770;7.298;2023-04-03T04:38:39;10.55;;;6.90;;
43620;SDS011;29213;50.770;7.298;2023-04-03T04:41:05;14.32;;;11.90;;
43620;SDS011;29213;50.770;7.298;2023-04-03T04:43:30;15.57;;;13.88;;
43620;SDS011;29213;50.770;7.298;2023-04-03T04:46:06;13.68;;;11.65;;
43620;SDS011;29213;50.770;7.298;2023-04-03T04:48:33;13.38;;;11.98;;
43620;SDS011;29213;50.770;7.298;2023-04-03T04:50:59;8.75;;;7.72;;
43620;SDS011;29213;50.770;7.298;2023-04-03T04:53:24;6.25;;;4.32;;
43620;SDS011;29213;50.770;7.298;2023-04-03T04:55:49;5.38;;;3.00;;
43620;SDS011;29213;50.770;7.298;2023-04-03T04:58:15;6.68;;;2.80;;
43620;SDS011;29213;50.770;7.298;2023-04-03T05:00:40;4.20;;;2.47;;
43620;SDS011;29213;50.770;7.298;2023-04-03T05:03:06;6.47;;;2.47;;
43620;SDS011;29213;50.770;7.298;2023-04-03T05:05:31;4.22;;;2.33;;
43620;SDS011;29213;50.770;7.298;2023-04-03T05:07:56;6.10;;;2.30;;
43620;SDS011;29213;50.770;7.298;2023-04-03T05:10:22;6.07;;;2.38;;
43620;SDS011;29213;50.770;7.298;2023-04-03T05:12:47;5.72;;;2.25;;
43620;SDS011;29213;50.770;7.298;2023-04-03T05:17:42;4.60;;;2.50;;
43620;SDS011;29213;50.770;7.298;2023-04-03T05:20:08;4.78;;;2.47;;
43620;SDS011;29213;50.770;7.298;2023-04-03T05:22:34;5.03;;;2.50;;
43620;SDS011;29213;50.770;7.298;2023-04-03T05:24:59;4.32;;;2.50;;
43620;SDS011;29213;50.770;7.298;2023-04-03T05:27:25;5.80;;;2.80;;
43620;SDS011;29213;50.770;7.298;2023-04-03T05:29:53;6.35;;;2.45;;
43620;SDS011;29213;50.770;7.298;2023-04-03T05:32:19;4.65;;;2.40;;
43620;SDS011;29213;50.770;7.298;2023-04-03T05:34:45;4.97;;;2.25;;
43620;SDS011;29213;50.770;7.298;2023-04-03T05:37:11;5.10;;;2.47;;
43620;SDS011;29213;50.770;7.298;2023-04-03T05:39:36;3.83;;;2.33;;
43620;SDS011;29213;50.770;7.298;2023-04-03T05:42:03;5.78;;;2.50;;
43620;SDS011;29213;50.770;7.298;2023-04-03T05:44:29;5.40;;;2.40;;
43620;SDS011;29213;50.770;7.298;2023-04-03T05:46:54;4.97;;;2.35;;
43620;SDS011;29213;50.770;7.298;2023-04-03T05:49:20;8.73;;;2.83;;
43620;SDS011;29213;50.770;7.298;2023-04-03T05:51:45;5.75;;;2.72;;
43620;SDS011;29213;50.770;7.298;2023-04-03T05:54:18;6.82;;;3.40;;
43620;SDS011;29213;50.770;7.298;2023-04-03T05:56:50;4.97;;;3.03;;
43620;SDS011;29213;50.770;7.298;2023-04-03T05:59:16;5.18;;;2.83;;
43620;SDS011;29213;50.770;7.298;2023-04-03T06:01:42;6.57;;;3.38;;
43620;SDS011;29213;50.770;7.298;2023-04-03T06:04:08;5.65;;;3.60;;
43620;SDS011;29213;50.770;7.298;2023-04-03T06:09:19;5.40;;;2.80;;
43620;SDS011;29213;50.770;7.298;2023-04-03T06:11:47;5.60;;;2.70;;
43620;SDS011;29213;50.770;7.298;2023-04-03T06:14:12;4.72;;;2.13;;
43620;SDS011;29213;50.770;7.298;2023-04-03T06:16:38;5.25;;;2.13;;
43620;SDS011;29213;50.770;7.298;2023-04-03T06:19:04;4.75;;;2.10;;
43620;SDS011;29213;50.770;7.298;2023-04-03T06:21:31;5.80;;;2.15;;
43620;SDS011;29213;50.770;7.298;2023-04-03T06:23:57;5.43;;;2.20;;
43620;SDS011;29213;50.770;7.298;2023-04-03T06:26:22;6.22;;;2.45;;
43620;SDS011;29213;50.770;7.298;2023-04-03T06:28:48;4.80;;;2.58;;
43620;SDS011;29213;50.770;7.298;2023-04-03T06:31:13;6.78;;;2.50;;
43620;SDS011;29213;50.770;7.298;2023-04-03T06:33:39;8.80;;;2.58;;
43620;SDS011;29213;50.770;7.298;2023-04-03T06:36:05;6.07;;;2.10;;
43620;SDS011;29213;50.770;7.298;2023-04-03T06:38:32;7.20;;;2.30;;
43620;SDS011;29213;50.770;7.298;2023-04-03T06:40:58;4.95;;;1.90;;
43620;SDS011;29213;50.770;7.298;2023-04-03T06:43:24;6.20;;;2.00;;
43620;SDS011;29213;50.770;7.298;2023-04-03T06:45:49;4.72;;;1.85;;
43620;SDS011;29213;50.770;7.298;2023-04-03T06:48:15;4.93;;;1.90;;
43620;SDS011;29213;50.770;7.298;2023-04-03T06:50:41;4.03;;;2.15;;
43620;SDS011;29213;50.770;7.298;2023-04-03T06:53:07;4.60;;;2.17;;
43620;SDS011;29213;50.770;7.298;2023-04-03T06:55:33;5.60;;;2.00;;
43620;SDS011;29213;50.770;7.298;2023-04-03T06:57:58;5.70;;;1.80;;
43620;SDS011;29213;50.770;7.298;2023-04-03T07:00:24;4.60;;;1.80;;
43620;SDS011;29213;50.770;7.298;2023-04-03T07:02:50;5.60;;;1.73;;
43620;SDS011;29213;50.770;7.298;2023-04-03T07:05:16;8.05;;;2.00;;
43620;SDS011;29213;50.770;7.298;2023-04-03T07:07:42;5.68;;;1.60;;
43620;SDS011;29213;50.770;7.298;2023-04-03T07:10:08;5.50;;;1.50;;
43620;SDS011;29213;50.770;7.298;2023-04-03T07:12:35;4.68;;;1.70;;
43620;SDS011;29213;50.770;7.298;2023-04-03T07:15:00;5.03;;;1.88;;
43620;SDS011;29213;50.770;7.298;2023-04-03T07:17:26;5.25;;;1.65;;
43620;SDS011;29213;50.770;7.298;2023-04-03T07:19:52;6.93;;;2.30;;
43620;SDS011;29213;50.770;7.298;2023-04-03T07:22:17;5.80;;;1.60;;
43620;SDS011;29213;50.770;7.298;2023-04-03T07:24:43;5.40;;;1.75;;
43620;SDS011;29213;50.770;7.298;2023-04-03T07:27:10;4.78;;;1.75;;
43620;SDS011;29213;50.770;7.298;2023-04-03T07:29:35;4.70;;;1.50;;
43620;SDS011;29213;50.770;7.298;2023-04-03T07:32:01;4.60;;;1.80;;
43620;SDS011;29213;50.770;7.298;2023-04-03T07:34:27;5.40;;;2.05;;
43620;SDS011;29213;50.770;7.298;2023-04-03T07:36:52;3.90;;;1.67;;
43620;SDS011;29213;50.770;7.298;2023-04-03T07:39:18;4.20;;;1.70;;
43620;SDS011;29213;50.770;7.298;2023-04-03T07:41:43;5.68;;;1.80;;
43620;SDS011;29213;50.770;7.298;2023-04-03T07:44:09;4.10;;;1.67;;
43620;SDS011;29213;50.770;7.298;2023-04-03T07:46:35;5.55;;;1.75;;
43620;SDS011;29213;50.770;7.298;2023-04-03T07:49:00;6.28;;;2.10;;
43620;SDS011;29213;50.770;7.298;2023-04-03T07:51:26;12.45;;;1.80;;
43620;SDS011;29213;50.770;7.298;2023-04-03T07:53:53;4.72;;;1.63;;
43620;SDS011;29213;50.770;7.298;2023-04-03T07:56:18;5.20;;;1.90;;
43620;SDS011;29213;50.770;7.298;2023-04-03T07:58:45;4.78;;;1.80;;
43620;SDS011;29213;50.770;7.298;2023-04-03T08:01:11;6.35;;;1.98;;
43620;SDS011;29213;50.770;7.298;2023-04-03T08:03:37;3.80;;;1.77;;
43620;SDS011;29213;50.770;7.298;2023-04-03T08:06:03;5.47;;;1.60;;
43620;SDS011;29213;50.770;7.298;2023-04-03T08:08:30;6.60;;;1.80;;
43620;SDS011;29213;50.770;7.298;2023-04-03T08:10:57;4.47;;;1.67;;
43620;SDS011;29213;50.770;7.298;2023-04-03T08:13:23;5.50;;;1.77;;
43620;SDS011;29213;50.770;7.298;2023-04-03T08:15:49;5.70;;;1.80;;
43620;SDS011;29213;50.770;7.298;2023-04-03T08:18:16;4.45;;;1.45;;
43620;SDS011;29213;50.770;7.298;2023-04-03T08:20:42;6.60;;;1.98;;
43620;SDS011;29213;50.770;7.298;2023-04-03T08:23:08;5.22;;;1.70;;
43620;SDS011;29213;50.770;7.298;2023-04-03T08:25:36;5.65;;;2.00;;
43620;SDS011;29213;50.770;7.298;2023-04-03T08:28:03;5.45;;;1.77;;
43620;SDS011;29213;50.770;7.298;2023-04-03T08:30:29;4.60;;;1.50;;
43620;SDS011;29213;50.770;7.298;2023-04-03T08:32:54;6.22;;;1.73;;
43620;SDS011;29213;50.770;7.298;2023-04-03T08:35:20;4.47;;;1.80;;
43620;SDS011;29213;50.770;7.298;2023-04-03T08:37:45;5.38;;;1.75;;
43620;SDS011;29213;50.770;7.298;2023-04-03T08:40:15;6.63;;;1.80;;
43620;SDS011;29213;50.770;7.298;2023-04-03T08:45:19;5.03;;;1.63;;
43620;SDS011;29213;50.770;7.298;2023-04-03T08:47:52;5.43;;;1.60;;
43620;SDS011;29213;50.770;7.298;2023-04-03T08:50:33;4.07;;;1.73;;
43620;SDS011;29213;50.770;7.298;2023-04-03T08:53:03;8.32;;;2.10;;
43620;SDS011;29213;50.770;7.298;2023-04-03T08:55:37;5.47;;;1.75;;
43620;SDS011;29213;50.770;7.298;2023-04-03T08:58:11;4.45;;;1.50;;
43620;SDS011;29213;50.770;7.298;2023-04-03T09:00:46;5.82;;;1.63;;
43620;SDS011;29213;50.770;7.298;2023-04-03T09:03:19;4.93;;;1.80;;
43620;SDS011;29213;50.770;7.298;2023-04-03T09:05:53;4.45;;;1.45;;
43620;SDS011;29213;50.770;7.298;2023-04-03T09:08:43;4.32;;;1.52;;
43620;SDS011;29213;50.770;7.298;2023-04-03T09:11:26;4.93;;;1.50;;
43620;SDS011;29213;50.770;7.298;2023-04-03T09:14:02;4.63;;;1.52;;
43620;SDS011;29213;50.770;7.298;2023-04-03T09:16:45;3.72;;;1.50;;
43620;SDS011;29213;50.770;7.298;2023-04-03T09:21:50;5.57;;;1.77;;
43620;SDS011;29213;50.770;7.298;2023-04-03T09:24:17;3.78;;;1.67;;
43620;SDS011;29213;50.770;7.298;2023-04-03T09:26:56;4.03;;;1.40;;
43620;SDS011;29213;50.770;7.298;2023-04-03T09:29:27;5.15;;;1.60;;
43620;SDS011;29213;50.770;7.298;2023-04-03T09:31:57;6.35;;;1.60;;
43620;SDS011;29213;50.770;7.298;2023-04-03T09:34:26;5.20;;;1.75;;
43620;SDS011;29213;50.770;7.298;2023-04-03T09:36:56;13.57;;;2.92;;
43620;SDS011;29213;50.770;7.298;2023-04-03T09:39:29;5.88;;;1.83;;
43620;SDS011;29213;50.770;7.298;2023-04-03T09:41:58;3.95;;;1.60;;
43620;SDS011;29213;50.770;7.298;2023-04-03T09:44:28;4.38;;;1.92;;
43620;SDS011;29213;50.770;7.298;2023-04-03T09:46:54;4.38;;;1.50;;
43620;SDS011;29213;50.770;7.298;2023-04-03T09:49:20;5.63;;;1.80;;
43620;SDS011;29213;50.770;7.298;2023-04-03T09:51:45;4.25;;;1.33;;
43620;SDS011;29213;50.770;7.298;2023-04-03T09:54:23;4.15;;;1.48;;
43620;SDS011;29213;50.770;7.298;2023-04-03T09:57:14;8.35;;;1.85;;
43620;SDS011;29213;50.770;7.298;2023-04-03T09:59:42;6.35;;;1.60;;
43620;SDS011;29213;50.770;7.298;2023-04-03T10:04:47;6.25;;;1.58;;
43620;SDS011;29213;50.770;7.298;2023-04-03T10:10:21;4.80;;;1.52;;
43620;SDS011;29213;50.770;7.298;2023-04-03T10:15:39;2.65;;;1.40;;
43620;SDS011;29213;50.770;7.298;2023-04-03T10:18:23;3.92;;;1.52;;
43620;SDS011;29213;50.770;7.298;2023-04-03T10:20:52;4.93;;;1.52;;
43620;SDS011;29213;50.770;7.298;2023-04-03T10:23:31;4.30;;;1.40;;
43620;SDS011;29213;50.770;7.298;2023-04-03T10:26:29;6.03;;;1.65;;
43620;SDS011;29213;50.770;7.298;2023-04-03T10:34:56;4.97;;;1.38;;
43620;SDS011;29213;50.770;7.298;2023-04-03T10:37:41;2.92;;;1.25;;
43620;SDS011;29213;50.770;7.298;2023-04-03T10:40:15;2.67;;;1.10;;
43620;SDS011;29213;50.770;7.298;2023-04-03T10:43:00;2.78;;;1.10;;
43620;SDS011;29213;50.770;7.298;2023-04-03T10:45:51;3.47;;;1.52;;
43620;SDS011;29213;50.770;7.298;2023-04-03T10:53:50;5.40;;;1.38;;
43620;SDS011;29213;50.770;7.298;2023-04-03T10:58:57;3.40;;;1.30;;
43620;SDS011;29213;50.770;7.298;2023-04-03T11:01:38;3.05;;;1.10;;
43620;SDS011;29213;50.770;7.298;2023-04-03T11:04:07;3.60;;;1.37;;
43620;SDS011;29213;50.770;7.298;2023-04-03T11:06:37;2.50;;;1.10;;
43620;SDS011;29213;50.770;7.298;2023-04-03T11:12:58;2.88;;;1.10;;
43620;SDS011;29213;50.770;7.298;2023-04-03T11:15:11;4.25;;;1.50;;
43620;SDS011;29213;50.770;7.298;2023-04-03T11:17:41;3.28;;;1.02;;
43620;SDS011;29213;50.770;7.298;2023-04-03T11:20:23;4.25;;;1.25;;
43620;SDS011;29213;50.770;7.298;2023-04-03T11:25:54;4.22;;;1.33;;
43620;SDS011;29213;50.770;7.298;2023-04-03T11:28:25;3.83;;;1.30;;
43620;SDS011;29213;50.770;7.298;2023-04-03T11:39:56;2.80;;;1.00;;
43620;SDS011;29213;50.770;7.298;2023-04-03T11:42:29;4.70;;;1.20;;
43620;SDS011;29213;50.770;7.298;2023-04-03T11:47:51;3.80;;;1.35;;
43620;SDS011;29213;50.770;7.298;2023-04-03T11:50:31;3.72;;;1.40;;
43620;SDS011;29213;50.770;7.298;2023-04-03T12:13:42;4.00;;;1.25;;
43620;SDS011;29213;50.770;7.298;2023-04-03T12:16:29;3.35;;;1.20;;
43620;SDS011;29213;50.770;7.298;2023-04-03T12:19:01;3.13;;;1.15;;
43620;SDS011;29213;50.770;7.298;2023-04-03T12:29:20;3.17;;;1.08;;
43620;SDS011;29213;50.770;7.298;2023-04-03T12:31:56;3.45;;;1.10;;
43620;SDS011;29213;50.770;7.298;2023-04-03T12:43:15;3.55;;;1.23;;
43620;SDS011;29213;50.770;7.298;2023-04-03T12:45:56;2.53;;;0.93;;
43620;SDS011;29213;50.770;7.298;2023-04-03T12:48:26;2.50;;;1.20;;
43620;SDS011;29213;50.770;7.298;2023-04-03T12:50:53;2.95;;;1.17;;
43620;SDS011;29213;50.770;7.298;2023-04-03T12:53:21;3.53;;;1.20;;
43620;SDS011;29213;50.770;7.298;2023-04-03T12:55:53;3.55;;;1.23;;
43620;SDS011;29213;50.770;7.298;2023-04-03T12:58:27;4.05;;;1.30;;
43620;SDS011;29213;50.770;7.298;2023-04-03T13:01:00;3.08;;;1.27;;
43620;SDS011;29213;50.770;7.298;2023-04-03T13:03:34;3.45;;;1.13;;
43620;SDS011;29213;50.770;7.298;2023-04-03T13:06:01;4.35;;;1.40;;
43620;SDS011;29213;50.770;7.298;2023-04-03T13:08:28;3.50;;;1.15;;
43620;SDS011;29213;50.770;7.298;2023-04-03T13:10:58;3.72;;;1.10;;
43620;SDS011;29213;50.770;7.298;2023-04-03T13:13:26;2.95;;;1.20;;
43620;SDS011;29213;50.770;7.298;2023-04-03T13:15:52;3.38;;;1.20;;
43620;SDS011;29213;50.770;7.298;2023-04-03T13:18:23;3.70;;;1.30;;
43620;SDS011;29213;50.770;7.298;2023-04-03T13:20:52;3.28;;;1.40;;
43620;SDS011;29213;50.770;7.298;2023-04-03T13:23:22;3.17;;;1.20;;
43620;SDS011;29213;50.770;7.298;2023-04-03T13:25:48;4.25;;;1.40;;
43620;SDS011;29213;50.770;7.298;2023-04-03T13:28:20;3.97;;;1.30;;
43620;SDS011;29213;50.770;7.298;2023-04-03T13:30:56;4.43;;;1.40;;
43620;SDS011;29213;50.770;7.298;2023-04-03T13:33:28;2.72;;;1.25;;
43620;SDS011;29213;50.770;7.298;2023-04-03T13:35:58;2.58;;;1.00;;
43620;SDS011;29213;50.770;7.298;2023-04-03T13:38:28;3.28;;;1.40;;
43620;SDS011;29213;50.770;7.298;2023-04-03T13:40:59;2.90;;;1.20;;
43620;SDS011;29213;50.770;7.298;2023-04-03T13:45:56;2.83;;;1.10;;
43620;SDS011;29213;50.770;7.298;2023-04-03T13:48:51;4.63;;;1.10;;
43620;SDS011;29213;50.770;7.298;2023-04-03T13:53:56;3.40;;;1.30;;
43620;SDS011;29213;50.770;7.298;2023-04-03T13:59:18;2.80;;;1.10;;
43620;SDS011;29213;50.770;7.298;2023-04-03T14:01:49;3.75;;;1.30;;
43620;SDS011;29213;50.770;7.298;2023-04-03T14:04:24;4.82;;;1.42;;
43620;SDS011;29213;50.770;7.298;2023-04-03T14:06:53;3.22;;;1.20;;
43620;SDS011;29213;50.770;7.298;2023-04-03T14:09:20;3.47;;;1.15;;
43620;SDS011;29213;50.770;7.298;2023-04-03T14:11:48;3.15;;;1.25;;
43620;SDS011;29213;50.770;7.298;2023-04-03T14:14:21;3.28;;;1.27;;
43620;SDS011;29213;50.770;7.298;2023-04-03T14:16:56;2.58;;;1.10;;
43620;SDS011;29213;50.770;7.298;2023-04-03T14:19:29;3.30;;;1.20;;
43620;SDS011;29213;50.770;7.298;2023-04-03T14:21:57;4.25;;;1.50;;
43620;SDS011;29213;50.770;7.298;2023-04-03T14:24:23;3.97;;;1.25;;
43620;SDS011;29213;50.770;7.298;2023-04-03T14:26:49;5.05;;;1.60;;
43620;SDS011;29213;50.770;7.298;2023-04-03T14:29:16;3.88;;;1.40;;
43620;SDS011;29213;50.770;7.298;2023-04-03T14:31:42;3.00;;;1.20;;
43620;SDS011;29213;50.770;7.298;2023-04-03T14:34:13;3.35;;;1.25;;
43620;SDS011;29213;50.770;7.298;2023-04-03T14:36:42;3.38;;;1.27;;
43620;SDS011;29213;50.770;7.298;2023-04-03T14:39:10;3.85;;;1.35;;
43620;SDS011;29213;50.770;7.298;2023-04-03T14:41:42;3.65;;;1.25;;
43620;SDS011;29213;50.770;7.298;2023-04-03T14:44:08;3.47;;;1.20;;
43620;SDS011;29213;50.770;7.298;2023-04-03T14:46:38;2.95;;;1.20;;
43620;SDS011;29213;50.770;7.298;2023-04-03T14:49:12;4.43;;;1.25;;
43620;SDS011;29213;50.770;7.298;2023-04-03T14:51:41;3.97;;;1.27;;
43620;SDS011;29213;50.770;7.298;2023-04-03T14:54:10;3.70;;;1.20;;
43620;SDS011;29213;50.770;7.298;2023-04-03T14:56:38;4.72;;;1.30;;
43620;SDS011;29213;50.770;7.298;2023-04-03T14:59:04;4.47;;;1.50;;
43620;SDS011;29213;50.770;7.298;2023-04-03T15:01:36;2.92;;;1.20;;
43620;SDS011;29213;50.770;7.298;2023-04-03T15:04:01;2.72;;;1.05;;
43620;SDS011;29213;50.770;7.298;2023-04-03T15:06:44;2.92;;;1.02;;
43620;SDS011;29213;50.770;7.298;2023-04-03T15:10:19;3.20;;;1.10;;
43620;SDS011;29213;50.770;7.298;2023-04-03T15:12:47;2.95;;;1.10;;
43620;SDS011;29213;50.770;7.298;2023-04-03T15:18:24;2.38;;;1.00;;
43620;SDS011;29213;50.770;7.298;2023-04-03T15:21:10;3.63;;;1.23;;
43620;SDS011;29213;50.770;7.298;2023-04-03T15:23:38;2.80;;;1.20;;
43620;SDS011;29213;50.770;7.298;2023-04-03T15:26:07;4.45;;;1.20;;
43620;SDS011;29213;50.770;7.298;2023-04-03T15:31:59;3.55;;;1.20;;
43620;SDS011;29213;50.770;7.298;2023-04-03T15:34:25;4.38;;;1.58;;
43620;SDS011;29213;50.770;7.298;2023-04-03T15:36:50;2.42;;;1.02;;
43620;SDS011;29213;50.770;7.298;2023-04-03T15:39:18;3.60;;;1.10;;
43620;SDS011;29213;50.770;7.298;2023-04-03T15:41:48;5.03;;;1.38;;
43620;SDS011;29213;50.770;7.298;2023-04-03T15:44:13;4.85;;;1.60;;
43620;SDS011;29213;50.770;7.298;2023-04-03T15:46:42;3.08;;;1.20;;
43620;SDS011;29213;50.770;7.298;2023-04-03T15:49:08;3.17;;;1.23;;
43620;SDS011;29213;50.770;7.298;2023-04-03T15:51:33;3.47;;;1.10;;
43620;SDS011;29213;50.770;7.298;2023-04-03T15:54:00;3.72;;;1.20;;
43620;SDS011;29213;50.770;7.298;2023-04-03T15:56:25;4.47;;;1.30;;
43620;SDS011;29213;50.770;7.298;2023-04-03T15:58:51;3.63;;;1.27;;
43620;SDS011;29213;50.770;7.298;2023-04-03T16:01:16;4.47;;;1.40;;
43620;SDS011;29213;50.770;7.298;2023-04-03T16:03:42;4.32;;;1.38;;
43620;SDS011;29213;50.770;7.298;2023-04-03T16:06:12;5.22;;;1.27;;
43620;SDS011;29213;50.770;7.298;2023-04-03T16:08:39;3.22;;;1.10;;
43620;SDS011;29213;50.770;7.298;2023-04-03T16:11:05;3.33;;;1.08;;
43620;SDS011;29213;50.770;7.298;2023-04-03T16:13:30;3.70;;;1.25;;
43620;SDS011;29213;50.770;7.298;2023-04-03T16:15:56;3.42;;;1.35;;
43620;SDS011;29213;50.770;7.298;2023-04-03T16:18:21;3.42;;;1.17;;
43620;SDS011;29213;50.770;7.298;2023-04-03T16:20:47;4.55;;;1.10;;
43620;SDS011;29213;50.770;7.298;2023-04-03T16:23:13;2.78;;;1.17;;
43620;SDS011;29213;50.770;7.298;2023-04-03T16:25:39;3.92;;;1.30;;
43620;SDS011;29213;50.770;7.298;2023-04-03T16:28:05;3.13;;;1.27;;
43620;SDS011;29213;50.770;7.298;2023-04-03T16:30:31;3.10;;;1.20;;
43620;SDS011;29213;50.770;7.298;2023-04-03T16:32:56;5.28;;;1.50;;
43620;SDS011;29213;50.770;7.298;2023-04-03T16:35:22;3.05;;;1.30;;
43620;SDS011;29213;50.770;7.298;2023-04-03T16:37:48;3.35;;;1.33;;
43620;SDS011;29213;50.770;7.298;2023-04-03T16:40:13;2.55;;;1.10;;
43620;SDS011;29213;50.770;7.298;2023-04-03T16:42:39;5.38;;;1.65;;
43620;SDS011;29213;50.770;7.298;2023-04-03T16:45:05;4.03;;;1.70;;